sensor_id;sensor_type;location;lat;lon;timestamp;P1;durP1;ratioP1;P2;durP2;ratioP2
68866;SDS011;56451;44.804;20.476;2023-06-26T00:02:25;8.23;;;5.85;;
68866;SDS011;56451;44.804;20.476;2023-06-26T00:04:51;8.43;;;6.13;;
68866;SDS011;56451;44.804;20.476;2023-06-26T00:07:20;7.93;;;6.38;;
68866;SDS011;56451;44.804;20.476;2023-06-26T00:09:46;8.25;;;6.65;;
68866;SDS011;56451;44.804;20.476;2023-06-26T00:12:12;8.30;;;6.20;;
68866;SDS011;56451;44.804;20.476;2023-06-26T00:14:38;8.55;;;6.32;;
68866;SDS011;56451;44.804;20.476;2023-06-26T00:17:04;9.05;;;6.43;;
68866;SDS011;56451;44.804;20.476;2023-06-26T00:19:30;9.48;;;6.22;;
68866;SDS011;56451;44.804;20.476;2023-06-26T00:21:56;7.53;;;5.93;;
68866;SDS011;56451;44.804;20.476;2023-06-26T00:24:22;9.37;;;6.13;;
68866;SDS011;56451;44.804;20.476;2023-06-26T00:26:48;9.48;;;6.47;;
68866;SDS011;56451;44.804;20.476;2023-06-26T00:29:15;8.93;;;6.20;;
68866;SDS011;56451;44.804;20.476;2023-06-26T00:31:41;9.02;;;6.25;;
68866;SDS011;56451;44.804;20.476;2023-06-26T00:34:07;8.40;;;6.23;;
68866;SDS011;56451;44.804;20.476;2023-06-26T00:36:33;9.55;;;6.10;;
68866;SDS011;56451;44.804;20.476;2023-06-26T00:38:59;8.48;;;5.85;;
68866;SDS011;56451;44.804;20.476;2023-06-26T00:41:26;7.95;;;6.07;;
68866;SDS011;56451;44.804;20.476;2023-06-26T00:43:52;9.27;;;6.37;;
68866;SDS011;56451;44.804;20.476;2023-06-26T00:46:18;9.00;;;6.40;;
68866;SDS011;56451;44.804;20.476;2023-06-26T00:48:46;8.60;;;6.10;;
68866;SDS011;56451;44.804;20.476;2023-06-26T00:51:13;9.10;;;6.05;;
68866;SDS011;56451;44.804;20.476;2023-06-26T00:53:39;10.27;;;6.27;;
68866;SDS011;56451;44.804;20.476;2023-06-26T00:56:05;9.43;;;6.50;;
68866;SDS011;56451;44.804;20.476;2023-06-26T00:58:35;8.95;;;6.22;;
68866;SDS011;56451;44.804;20.476;2023-06-26T01:01:01;10.85;;;7.20;;
68866;SDS011;56451;44.804;20.476;2023-06-26T01:03:28;7.67;;;6.23;;
68866;SDS011;56451;44.804;20.476;2023-06-26T01:05:56;10.40;;;6.43;;
68866;SDS011;56451;44.804;20.476;2023-06-26T01:08:24;7.95;;;6.60;;
68866;SDS011;56451;44.804;20.476;2023-06-26T01:10:51;9.68;;;7.30;;
68866;SDS011;56451;44.804;20.476;2023-06-26T01:13:17;7.75;;;6.30;;
68866;SDS011;56451;44.804;20.476;2023-06-26T01:15:44;8.60;;;6.63;;
68866;SDS011;56451;44.804;20.476;2023-06-26T01:18:12;9.35;;;6.43;;
68866;SDS011;56451;44.804;20.476;2023-06-26T01:20:40;9.15;;;6.20;;
68866;SDS011;56451;44.804;20.476;2023-06-26T01:23:15;7.70;;;6.07;;
68866;SDS011;56451;44.804;20.476;2023-06-26T01:26:34;8.55;;;6.55;;
68866;SDS011;56451;44.804;20.476;2023-06-26T01:28:49;8.07;;;6.30;;
68866;SDS011;56451;44.804;20.476;2023-06-26T01:31:16;10.48;;;6.93;;
68866;SDS011;56451;44.804;20.476;2023-06-26T01:33:44;8.77;;;6.55;;
68866;SDS011;56451;44.804;20.476;2023-06-26T01:36:11;8.60;;;6.80;;
68866;SDS011;56451;44.804;20.476;2023-06-26T01:38:37;9.23;;;6.43;;
68866;SDS011;56451;44.804;20.476;2023-06-26T01:41:03;7.27;;;6.23;;
68866;SDS011;56451;44.804;20.476;2023-06-26T01:49:30;9.95;;;7.13;;
68866;SDS011;56451;44.804;20.476;2023-06-26T01:52:07;10.60;;;6.93;;
68866;SDS011;56451;44.804;20.476;2023-06-26T01:54:37;12.13;;;7.05;;
68866;SDS011;56451;44.804;20.476;2023-06-26T01:57:08;8.98;;;6.80;;
68866;SDS011;56451;44.804;20.476;2023-06-26T01:59:35;9.48;;;6.88;;
68866;SDS011;56451;44.804;20.476;2023-06-26T02:02:06;9.02;;;6.78;;
68866;SDS011;56451;44.804;20.476;2023-06-26T02:04:35;9.00;;;6.90;;
68866;SDS011;56451;44.804;20.476;2023-06-26T02:07:01;10.77;;;7.40;;
68866;SDS011;56451;44.804;20.476;2023-06-26T02:09:29;10.85;;;6.93;;
68866;SDS011;56451;44.804;20.476;2023-06-26T02:11:55;11.90;;;7.50;;
68866;SDS011;56451;44.804;20.476;2023-06-26T02:14:21;9.63;;;6.60;;
68866;SDS011;56451;44.804;20.476;2023-06-26T02:16:47;8.43;;;7.00;;
68866;SDS011;56451;44.804;20.476;2023-06-26T02:19:13;10.32;;;7.25;;
68866;SDS011;56451;44.804;20.476;2023-06-26T02:21:51;10.20;;;6.90;;
68866;SDS011;56451;44.804;20.476;2023-06-26T02:24:16;9.77;;;6.97;;
68866;SDS011;56451;44.804;20.476;2023-06-26T02:26:42;9.68;;;6.97;;
68866;SDS011;56451;44.804;20.476;2023-06-26T02:29:10;14.57;;;7.95;;
68866;SDS011;56451;44.804;20.476;2023-06-26T02:31:39;8.73;;;7.32;;
68866;SDS011;56451;44.804;20.476;2023-06-26T02:34:05;10.03;;;6.93;;
68866;SDS011;56451;44.804;20.476;2023-06-26T02:36:33;9.48;;;7.32;;
68866;SDS011;56451;44.804;20.476;2023-06-26T02:38:59;13.02;;;7.03;;
68866;SDS011;56451;44.804;20.476;2023-06-26T02:41:25;9.73;;;7.45;;
68866;SDS011;56451;44.804;20.476;2023-06-26T02:43:51;10.17;;;6.87;;
68866;SDS011;56451;44.804;20.476;2023-06-26T02:46:17;9.15;;;7.18;;
68866;SDS011;56451;44.804;20.476;2023-06-26T02:48:44;11.68;;;7.47;;
68866;SDS011;56451;44.804;20.476;2023-06-26T02:51:10;9.93;;;7.55;;
68866;SDS011;56451;44.804;20.476;2023-06-26T02:53:36;10.98;;;7.03;;
68866;SDS011;56451;44.804;20.476;2023-06-26T02:56:03;10.83;;;7.23;;
68866;SDS011;56451;44.804;20.476;2023-06-26T02:58:30;9.27;;;7.13;;
68866;SDS011;56451;44.804;20.476;2023-06-26T03:00:56;12.40;;;7.15;;
68866;SDS011;56451;44.804;20.476;2023-06-26T03:03:22;10.38;;;6.75;;
68866;SDS011;56451;44.804;20.476;2023-06-26T03:05:48;9.20;;;6.50;;
68866;SDS011;56451;44.804;20.476;2023-06-26T03:08:14;11.13;;;7.47;;
68866;SDS011;56451;44.804;20.476;2023-06-26T03:10:40;9.77;;;7.68;;
68866;SDS011;56451;44.804;20.476;2023-06-26T03:13:06;11.85;;;7.45;;
68866;SDS011;56451;44.804;20.476;2023-06-26T03:15:32;10.18;;;7.32;;
68866;SDS011;56451;44.804;20.476;2023-06-26T03:17:58;10.40;;;7.30;;
68866;SDS011;56451;44.804;20.476;2023-06-26T03:20:26;10.55;;;7.18;;
68866;SDS011;56451;44.804;20.476;2023-06-26T03:22:56;8.73;;;6.93;;
68866;SDS011;56451;44.804;20.476;2023-06-26T03:25:23;10.57;;;7.10;;
68866;SDS011;56451;44.804;20.476;2023-06-26T03:27:56;13.25;;;7.25;;
68866;SDS011;56451;44.804;20.476;2023-06-26T03:30:22;11.30;;;7.50;;
68866;SDS011;56451;44.804;20.476;2023-06-26T03:32:50;11.75;;;7.60;;
68866;SDS011;56451;44.804;20.476;2023-06-26T03:35:16;9.57;;;7.53;;
68866;SDS011;56451;44.804;20.476;2023-06-26T03:37:43;9.82;;;7.43;;
68866;SDS011;56451;44.804;20.476;2023-06-26T03:40:10;10.03;;;7.43;;
68866;SDS011;56451;44.804;20.476;2023-06-26T03:42:36;10.18;;;7.35;;
68866;SDS011;56451;44.804;20.476;2023-06-26T03:45:03;10.23;;;7.35;;
68866;SDS011;56451;44.804;20.476;2023-06-26T03:47:30;12.20;;;7.80;;
68866;SDS011;56451;44.804;20.476;2023-06-26T03:49:56;11.25;;;7.50;;
68866;SDS011;56451;44.804;20.476;2023-06-26T03:52:22;9.07;;;7.40;;
68866;SDS011;56451;44.804;20.476;2023-06-26T03:54:48;14.05;;;7.78;;
68866;SDS011;56451;44.804;20.476;2023-06-26T03:57:16;10.30;;;7.40;;
68866;SDS011;56451;44.804;20.476;2023-06-26T03:59:42;12.52;;;7.43;;
68866;SDS011;56451;44.804;20.476;2023-06-26T04:02:08;12.70;;;8.63;;
68866;SDS011;56451;44.804;20.476;2023-06-26T04:04:34;11.98;;;8.25;;
68866;SDS011;56451;44.804;20.476;2023-06-26T04:07:00;10.80;;;7.97;;
68866;SDS011;56451;44.804;20.476;2023-06-26T04:09:26;11.98;;;7.90;;
68866;SDS011;56451;44.804;20.476;2023-06-26T04:11:52;11.53;;;8.33;;
68866;SDS011;56451;44.804;20.476;2023-06-26T04:14:17;11.57;;;8.70;;
68866;SDS011;56451;44.804;20.476;2023-06-26T04:16:43;10.80;;;8.07;;
68866;SDS011;56451;44.804;20.476;2023-06-26T04:19:10;11.20;;;8.70;;
68866;SDS011;56451;44.804;20.476;2023-06-26T04:21:36;15.05;;;8.75;;
68866;SDS011;56451;44.804;20.476;2023-06-26T04:24:03;10.35;;;7.95;;
68866;SDS011;56451;44.804;20.476;2023-06-26T04:26:29;12.13;;;8.02;;
68866;SDS011;56451;44.804;20.476;2023-06-26T04:28:55;11.30;;;8.83;;
68866;SDS011;56451;44.804;20.476;2023-06-26T04:31:20;9.95;;;8.02;;
68866;SDS011;56451;44.804;20.476;2023-06-26T04:33:47;11.70;;;8.32;;
68866;SDS011;56451;44.804;20.476;2023-06-26T04:36:17;12.52;;;9.27;;
68866;SDS011;56451;44.804;20.476;2023-06-26T04:38:43;11.37;;;8.80;;
68866;SDS011;56451;44.804;20.476;2023-06-26T04:41:09;12.45;;;8.52;;
68866;SDS011;56451;44.804;20.476;2023-06-26T04:43:35;13.40;;;8.27;;
68866;SDS011;56451;44.804;20.476;2023-06-26T04:46:04;12.63;;;9.00;;
68866;SDS011;56451;44.804;20.476;2023-06-26T04:48:30;13.82;;;8.95;;
68866;SDS011;56451;44.804;20.476;2023-06-26T04:50:56;13.00;;;8.82;;
68866;SDS011;56451;44.804;20.476;2023-06-26T04:53:24;18.90;;;9.70;;
68866;SDS011;56451;44.804;20.476;2023-06-26T04:55:51;11.20;;;8.50;;
68866;SDS011;56451;44.804;20.476;2023-06-26T04:58:17;15.90;;;8.90;;
68866;SDS011;56451;44.804;20.476;2023-06-26T05:00:44;16.42;;;9.40;;
68866;SDS011;56451;44.804;20.476;2023-06-26T05:03:14;12.30;;;8.98;;
68866;SDS011;56451;44.804;20.476;2023-06-26T05:05:42;12.63;;;9.45;;
68866;SDS011;56451;44.804;20.476;2023-06-26T05:08:20;11.15;;;8.80;;
68866;SDS011;56451;44.804;20.476;2023-06-26T05:10:47;12.00;;;9.00;;
68866;SDS011;56451;44.804;20.476;2023-06-26T05:13:13;12.15;;;9.30;;
68866;SDS011;56451;44.804;20.476;2023-06-26T05:15:43;11.57;;;9.20;;
68866;SDS011;56451;44.804;20.476;2023-06-26T05:18:09;11.90;;;9.13;;
68866;SDS011;56451;44.804;20.476;2023-06-26T05:20:36;12.88;;;9.80;;
68866;SDS011;56451;44.804;20.476;2023-06-26T05:23:02;14.83;;;9.23;;
68866;SDS011;56451;44.804;20.476;2023-06-26T05:25:31;11.93;;;9.00;;
68866;SDS011;56451;44.804;20.476;2023-06-26T05:27:59;11.77;;;9.63;;
68866;SDS011;56451;44.804;20.476;2023-06-26T05:30:26;12.95;;;9.68;;
68866;SDS011;56451;44.804;20.476;2023-06-26T05:32:53;12.82;;;8.95;;
68866;SDS011;56451;44.804;20.476;2023-06-26T05:35:20;13.17;;;9.57;;
68866;SDS011;56451;44.804;20.476;2023-06-26T05:37:50;12.38;;;8.68;;
68866;SDS011;56451;44.804;20.476;2023-06-26T05:40:17;13.07;;;9.32;;
68866;SDS011;56451;44.804;20.476;2023-06-26T05:42:44;15.18;;;9.20;;
68866;SDS011;56451;44.804;20.476;2023-06-26T05:45:10;12.13;;;9.60;;
68866;SDS011;56451;44.804;20.476;2023-06-26T05:47:36;12.77;;;9.23;;
68866;SDS011;56451;44.804;20.476;2023-06-26T05:50:03;13.13;;;9.48;;
68866;SDS011;56451;44.804;20.476;2023-06-26T05:52:29;11.82;;;9.20;;
68866;SDS011;56451;44.804;20.476;2023-06-26T05:54:56;13.93;;;9.55;;
68866;SDS011;56451;44.804;20.476;2023-06-26T05:57:26;13.93;;;9.40;;
68866;SDS011;56451;44.804;20.476;2023-06-26T05:59:53;11.77;;;9.27;;
68866;SDS011;56451;44.804;20.476;2023-06-26T06:02:19;13.85;;;9.10;;
68866;SDS011;56451;44.804;20.476;2023-06-26T06:04:45;15.48;;;9.60;;
68866;SDS011;56451;44.804;20.476;2023-06-26T06:07:11;13.80;;;10.40;;
68866;SDS011;56451;44.804;20.476;2023-06-26T06:09:37;13.63;;;9.90;;
68866;SDS011;56451;44.804;20.476;2023-06-26T06:12:07;11.93;;;9.10;;
68866;SDS011;56451;44.804;20.476;2023-06-26T06:14:33;13.20;;;9.73;;
68866;SDS011;56451;44.804;20.476;2023-06-26T06:17:00;14.32;;;9.55;;
68866;SDS011;56451;44.804;20.476;2023-06-26T06:19:27;13.20;;;9.68;;
68866;SDS011;56451;44.804;20.476;2023-06-26T06:21:53;14.82;;;10.20;;
68866;SDS011;56451;44.804;20.476;2023-06-26T06:24:19;15.77;;;10.20;;
68866;SDS011;56451;44.804;20.476;2023-06-26T06:26:45;16.15;;;10.32;;
68866;SDS011;56451;44.804;20.476;2023-06-26T06:29:11;14.68;;;9.77;;
68866;SDS011;56451;44.804;20.476;2023-06-26T06:31:37;14.53;;;10.40;;
68866;SDS011;56451;44.804;20.476;2023-06-26T06:34:03;12.80;;;9.40;;
68866;SDS011;56451;44.804;20.476;2023-06-26T06:36:29;14.90;;;8.98;;
68866;SDS011;56451;44.804;20.476;2023-06-26T06:38:56;16.50;;;8.82;;
68866;SDS011;56451;44.804;20.476;2023-06-26T06:41:22;12.45;;;9.48;;
68866;SDS011;56451;44.804;20.476;2023-06-26T06:43:48;12.97;;;10.03;;
68866;SDS011;56451;44.804;20.476;2023-06-26T06:46:14;13.95;;;9.10;;
68866;SDS011;56451;44.804;20.476;2023-06-26T06:48:40;11.98;;;9.48;;
68866;SDS011;56451;44.804;20.476;2023-06-26T06:51:06;12.80;;;10.00;;
68866;SDS011;56451;44.804;20.476;2023-06-26T06:53:32;11.38;;;8.65;;
68866;SDS011;56451;44.804;20.476;2023-06-26T06:55:58;13.57;;;9.40;;
68866;SDS011;56451;44.804;20.476;2023-06-26T06:58:24;14.75;;;10.48;;
68866;SDS011;56451;44.804;20.476;2023-06-26T07:00:50;13.03;;;9.63;;
68866;SDS011;56451;44.804;20.476;2023-06-26T07:03:17;12.65;;;8.93;;
68866;SDS011;56451;44.804;20.476;2023-06-26T07:05:43;18.23;;;11.07;;
68866;SDS011;56451;44.804;20.476;2023-06-26T07:08:09;12.27;;;8.68;;
68866;SDS011;56451;44.804;20.476;2023-06-26T07:10:35;15.45;;;9.68;;
68866;SDS011;56451;44.804;20.476;2023-06-26T07:13:01;14.33;;;9.63;;
68866;SDS011;56451;44.804;20.476;2023-06-26T07:15:28;15.18;;;9.38;;
68866;SDS011;56451;44.804;20.476;2023-06-26T07:17:54;11.15;;;9.60;;
68866;SDS011;56451;44.804;20.476;2023-06-26T07:20:20;13.13;;;9.55;;
68866;SDS011;56451;44.804;20.476;2023-06-26T07:22:46;12.87;;;9.40;;
68866;SDS011;56451;44.804;20.476;2023-06-26T07:25:12;12.82;;;9.45;;
68866;SDS011;56451;44.804;20.476;2023-06-26T07:27:39;14.13;;;9.68;;
68866;SDS011;56451;44.804;20.476;2023-06-26T07:30:05;16.45;;;9.30;;
68866;SDS011;56451;44.804;20.476;2023-06-26T07:32:34;13.48;;;8.88;;
68866;SDS011;56451;44.804;20.476;2023-06-26T07:35:00;12.40;;;8.33;;
68866;SDS011;56451;44.804;20.476;2023-06-26T07:37:26;13.95;;;8.07;;
68866;SDS011;56451;44.804;20.476;2023-06-26T07:39:52;15.98;;;8.38;;
68866;SDS011;56451;44.804;20.476;2023-06-26T07:42:19;11.20;;;7.47;;
68866;SDS011;56451;44.804;20.476;2023-06-26T07:44:44;10.90;;;7.53;;
68866;SDS011;56451;44.804;20.476;2023-06-26T07:47:11;9.23;;;7.47;;
68866;SDS011;56451;44.804;20.476;2023-06-26T07:49:36;10.50;;;7.32;;
68866;SDS011;56451;44.804;20.476;2023-06-26T07:52:05;11.70;;;8.00;;
68866;SDS011;56451;44.804;20.476;2023-06-26T07:54:31;8.50;;;7.35;;
68866;SDS011;56451;44.804;20.476;2023-06-26T07:57:01;9.87;;;6.57;;
68866;SDS011;56451;44.804;20.476;2023-06-26T07:59:30;8.63;;;6.60;;
68866;SDS011;56451;44.804;20.476;2023-06-26T08:01:56;8.60;;;6.53;;
68866;SDS011;56451;44.804;20.476;2023-06-26T08:04:23;9.18;;;6.47;;
68866;SDS011;56451;44.804;20.476;2023-06-26T08:06:51;8.45;;;6.15;;
68866;SDS011;56451;44.804;20.476;2023-06-26T08:09:19;9.57;;;5.50;;
68866;SDS011;56451;44.804;20.476;2023-06-26T08:11:46;9.57;;;5.78;;
68866;SDS011;56451;44.804;20.476;2023-06-26T08:14:13;8.32;;;5.53;;
68866;SDS011;56451;44.804;20.476;2023-06-26T08:16:39;7.18;;;5.28;;
68866;SDS011;56451;44.804;20.476;2023-06-26T08:19:06;7.25;;;5.25;;
68866;SDS011;56451;44.804;20.476;2023-06-26T08:21:32;6.60;;;5.40;;
68866;SDS011;56451;44.804;20.476;2023-06-26T08:23:59;9.05;;;6.32;;
68866;SDS011;56451;44.804;20.476;2023-06-26T08:26:25;6.07;;;5.10;;
68866;SDS011;56451;44.804;20.476;2023-06-26T08:28:51;6.27;;;5.10;;
68866;SDS011;56451;44.804;20.476;2023-06-26T08:31:17;6.60;;;4.83;;
68866;SDS011;56451;44.804;20.476;2023-06-26T08:33:43;8.02;;;5.00;;
68866;SDS011;56451;44.804;20.476;2023-06-26T08:36:09;6.60;;;4.82;;
68866;SDS011;56451;44.804;20.476;2023-06-26T08:38:35;6.45;;;5.50;;
68866;SDS011;56451;44.804;20.476;2023-06-26T08:41:01;6.87;;;4.80;;
68866;SDS011;56451;44.804;20.476;2023-06-26T08:43:28;9.60;;;5.47;;
68866;SDS011;56451;44.804;20.476;2023-06-26T08:45:54;7.35;;;4.78;;
68866;SDS011;56451;44.804;20.476;2023-06-26T08:48:20;5.85;;;4.55;;
68866;SDS011;56451;44.804;20.476;2023-06-26T08:50:51;11.43;;;5.15;;
68866;SDS011;56451;44.804;20.476;2023-06-26T08:53:21;6.53;;;4.97;;
68866;SDS011;56451;44.804;20.476;2023-06-26T08:55:48;7.10;;;4.70;;
68866;SDS011;56451;44.804;20.476;2023-06-26T08:58:18;7.47;;;4.57;;
68866;SDS011;56451;44.804;20.476;2023-06-26T09:00:45;5.25;;;4.18;;
68866;SDS011;56451;44.804;20.476;2023-06-26T09:03:11;6.20;;;4.22;;
68866;SDS011;56451;44.804;20.476;2023-06-26T09:05:39;6.33;;;4.60;;
68866;SDS011;56451;44.804;20.476;2023-06-26T09:08:05;6.15;;;4.40;;
68866;SDS011;56451;44.804;20.476;2023-06-26T09:10:32;6.38;;;4.38;;
68866;SDS011;56451;44.804;20.476;2023-06-26T09:12:58;4.70;;;4.03;;
68866;SDS011;56451;44.804;20.476;2023-06-26T09:15:26;5.60;;;4.47;;
68866;SDS011;56451;44.804;20.476;2023-06-26T09:17:57;6.38;;;4.38;;
68866;SDS011;56451;44.804;20.476;2023-06-26T09:20:27;8.10;;;4.28;;
68866;SDS011;56451;44.804;20.476;2023-06-26T09:22:53;6.32;;;4.43;;
68866;SDS011;56451;44.804;20.476;2023-06-26T09:25:21;5.80;;;4.18;;
68866;SDS011;56451;44.804;20.476;2023-06-26T09:27:48;4.47;;;3.90;;
68866;SDS011;56451;44.804;20.476;2023-06-26T09:30:16;4.40;;;3.70;;
68866;SDS011;56451;44.804;20.476;2023-06-26T09:32:43;5.13;;;4.00;;
68866;SDS011;56451;44.804;20.476;2023-06-26T09:35:10;7.18;;;4.65;;
68866;SDS011;56451;44.804;20.476;2023-06-26T09:37:36;4.90;;;3.87;;
68866;SDS011;56451;44.804;20.476;2023-06-26T09:40:03;5.45;;;4.32;;
68866;SDS011;56451;44.804;20.476;2023-06-26T09:42:30;8.63;;;4.90;;
68866;SDS011;56451;44.804;20.476;2023-06-26T09:44:56;5.03;;;4.03;;
68866;SDS011;56451;44.804;20.476;2023-06-26T09:47:23;6.10;;;4.40;;
68866;SDS011;56451;44.804;20.476;2023-06-26T09:49:49;5.40;;;4.10;;
68866;SDS011;56451;44.804;20.476;2023-06-26T09:52:17;10.15;;;4.47;;
68866;SDS011;56451;44.804;20.476;2023-06-26T09:54:44;5.10;;;4.03;;
68866;SDS011;56451;44.804;20.476;2023-06-26T09:57:15;7.55;;;4.63;;
68866;SDS011;56451;44.804;20.476;2023-06-26T09:59:43;7.45;;;4.30;;
68866;SDS011;56451;44.804;20.476;2023-06-26T10:02:10;8.63;;;4.20;;
68866;SDS011;56451;44.804;20.476;2023-06-26T10:04:37;5.88;;;4.38;;
68866;SDS011;56451;44.804;20.476;2023-06-26T10:07:07;4.93;;;4.30;;
68866;SDS011;56451;44.804;20.476;2023-06-26T10:09:41;6.45;;;4.32;;
68866;SDS011;56451;44.804;20.476;2023-06-26T10:12:11;7.55;;;4.90;;
68866;SDS011;56451;44.804;20.476;2023-06-26T10:14:43;6.90;;;4.67;;
68866;SDS011;56451;44.804;20.476;2023-06-26T10:17:13;8.80;;;4.97;;
68866;SDS011;56451;44.804;20.476;2023-06-26T10:19:43;7.22;;;4.32;;
68866;SDS011;56451;44.804;20.476;2023-06-26T10:22:11;7.68;;;4.55;;
68866;SDS011;56451;44.804;20.476;2023-06-26T10:24:40;8.85;;;5.00;;
68866;SDS011;56451;44.804;20.476;2023-06-26T10:27:17;6.07;;;4.50;;
68866;SDS011;56451;44.804;20.476;2023-06-26T10:29:45;5.75;;;4.45;;
68866;SDS011;56451;44.804;20.476;2023-06-26T10:32:15;6.55;;;4.80;;
68866;SDS011;56451;44.804;20.476;2023-06-26T10:34:42;4.70;;;4.18;;
68866;SDS011;56451;44.804;20.476;2023-06-26T10:37:09;6.32;;;4.70;;
68866;SDS011;56451;44.804;20.476;2023-06-26T10:39:51;5.93;;;4.40;;
68866;SDS011;56451;44.804;20.476;2023-06-26T10:42:20;6.78;;;4.38;;
68866;SDS011;56451;44.804;20.476;2023-06-26T10:45:08;6.72;;;4.43;;
68866;SDS011;56451;44.804;20.476;2023-06-26T10:47:45;6.75;;;4.35;;
68866;SDS011;56451;44.804;20.476;2023-06-26T10:50:23;6.78;;;4.63;;
68866;SDS011;56451;44.804;20.476;2023-06-26T10:55:48;6.70;;;4.68;;
68866;SDS011;56451;44.804;20.476;2023-06-26T11:03:37;6.47;;;4.50;;
68866;SDS011;56451;44.804;20.476;2023-06-26T11:06:13;6.50;;;4.70;;
68866;SDS011;56451;44.804;20.476;2023-06-26T11:08:44;6.18;;;4.15;;
68866;SDS011;56451;44.804;20.476;2023-06-26T11:11:12;7.28;;;4.60;;
68866;SDS011;56451;44.804;20.476;2023-06-26T11:13:39;7.53;;;4.68;;
68866;SDS011;56451;44.804;20.476;2023-06-26T11:16:05;7.22;;;4.68;;
68866;SDS011;56451;44.804;20.476;2023-06-26T11:18:31;7.03;;;4.63;;
68866;SDS011;56451;44.804;20.476;2023-06-26T11:21:10;5.53;;;4.70;;
68866;SDS011;56451;44.804;20.476;2023-06-26T11:23:40;9.68;;;5.07;;
68866;SDS011;56451;44.804;20.476;2023-06-26T11:26:16;7.45;;;5.07;;
68866;SDS011;56451;44.804;20.476;2023-06-26T11:28:54;5.82;;;4.88;;
68866;SDS011;56451;44.804;20.476;2023-06-26T11:31:25;6.30;;;4.80;;
68866;SDS011;56451;44.804;20.476;2023-06-26T11:33:59;6.82;;;4.97;;
68866;SDS011;56451;44.804;20.476;2023-06-26T11:36:26;6.60;;;4.95;;
68866;SDS011;56451;44.804;20.476;2023-06-26T11:38:53;8.38;;;4.70;;
68866;SDS011;56451;44.804;20.476;2023-06-26T11:41:26;6.53;;;4.57;;
68866;SDS011;56451;44.804;20.476;2023-06-26T11:43:54;7.33;;;4.70;;
68866;SDS011;56451;44.804;20.476;2023-06-26T11:46:21;8.98;;;4.90;;
68866;SDS011;56451;44.804;20.476;2023-06-26T11:48:49;7.47;;;5.10;;
68866;SDS011;56451;44.804;20.476;2023-06-26T11:51:15;6.80;;;4.78;;
68866;SDS011;56451;44.804;20.476;2023-06-26T11:53:41;7.25;;;4.93;;
68866;SDS011;56451;44.804;20.476;2023-06-26T11:56:11;6.33;;;4.53;;
68866;SDS011;56451;44.804;20.476;2023-06-26T12:01:36;7.30;;;5.00;;
68866;SDS011;56451;44.804;20.476;2023-06-26T12:04:09;6.78;;;4.55;;
68866;SDS011;56451;44.804;20.476;2023-06-26T12:06:37;7.43;;;4.82;;
68866;SDS011;56451;44.804;20.476;2023-06-26T12:09:06;5.10;;;4.60;;
68866;SDS011;56451;44.804;20.476;2023-06-26T12:11:35;5.60;;;4.47;;
68866;SDS011;56451;44.804;20.476;2023-06-26T12:14:03;5.88;;;4.80;;
68866;SDS011;56451;44.804;20.476;2023-06-26T12:16:31;5.82;;;4.55;;
68866;SDS011;56451;44.804;20.476;2023-06-26T12:18:59;6.35;;;4.90;;
68866;SDS011;56451;44.804;20.476;2023-06-26T12:24:08;14.02;;;5.60;;
68866;SDS011;56451;44.804;20.476;2023-06-26T12:26:35;5.95;;;5.15;;
68866;SDS011;56451;44.804;20.476;2023-06-26T12:29:06;7.38;;;4.65;;
68866;SDS011;56451;44.804;20.476;2023-06-26T12:31:32;5.60;;;4.90;;
68866;SDS011;56451;44.804;20.476;2023-06-26T12:33:59;5.50;;;4.60;;
68866;SDS011;56451;44.804;20.476;2023-06-26T12:36:26;7.00;;;4.90;;
68866;SDS011;56451;44.804;20.476;2023-06-26T12:38:53;6.38;;;5.03;;
68866;SDS011;56451;44.804;20.476;2023-06-26T12:41:20;6.45;;;4.50;;
68866;SDS011;56451;44.804;20.476;2023-06-26T12:43:49;5.82;;;4.55;;
68866;SDS011;56451;44.804;20.476;2023-06-26T12:46:32;7.80;;;4.67;;
68866;SDS011;56451;44.804;20.476;2023-06-26T12:48:59;4.60;;;4.13;;
68866;SDS011;56451;44.804;20.476;2023-06-26T12:51:25;5.95;;;4.28;;
68866;SDS011;56451;44.804;20.476;2023-06-26T12:53:53;6.57;;;4.90;;
68866;SDS011;56451;44.804;20.476;2023-06-26T12:56:19;5.85;;;4.72;;
68866;SDS011;56451;44.804;20.476;2023-06-26T12:58:45;6.93;;;4.53;;
68866;SDS011;56451;44.804;20.476;2023-06-26T13:01:11;7.13;;;5.18;;
68866;SDS011;56451;44.804;20.476;2023-06-26T13:03:39;9.93;;;3.95;;
68866;SDS011;56451;44.804;20.476;2023-06-26T13:06:05;5.90;;;4.75;;
68866;SDS011;56451;44.804;20.476;2023-06-26T13:08:32;4.53;;;4.13;;
68866;SDS011;56451;44.804;20.476;2023-06-26T13:10:59;5.80;;;4.68;;
68866;SDS011;56451;44.804;20.476;2023-06-26T13:13:25;7.55;;;4.45;;
68866;SDS011;56451;44.804;20.476;2023-06-26T13:15:51;6.60;;;3.88;;
68866;SDS011;56451;44.804;20.476;2023-06-26T13:18:17;5.45;;;4.75;;
68866;SDS011;56451;44.804;20.476;2023-06-26T13:20:43;6.10;;;4.73;;
68866;SDS011;56451;44.804;20.476;2023-06-26T13:23:10;7.65;;;4.45;;
68866;SDS011;56451;44.804;20.476;2023-06-26T13:25:35;7.13;;;4.68;;
68866;SDS011;56451;44.804;20.476;2023-06-26T13:28:01;6.90;;;3.97;;
68866;SDS011;56451;44.804;20.476;2023-06-26T13:30:27;5.30;;;4.03;;
68866;SDS011;56451;44.804;20.476;2023-06-26T13:32:53;6.83;;;4.43;;
68866;SDS011;56451;44.804;20.476;2023-06-26T13:35:20;5.72;;;4.50;;
68866;SDS011;56451;44.804;20.476;2023-06-26T13:37:46;5.63;;;4.32;;
68866;SDS011;56451;44.804;20.476;2023-06-26T13:40:12;5.13;;;4.20;;
68866;SDS011;56451;44.804;20.476;2023-06-26T13:42:38;5.47;;;3.90;;
68866;SDS011;56451;44.804;20.476;2023-06-26T13:45:05;5.75;;;4.55;;
68866;SDS011;56451;44.804;20.476;2023-06-26T13:47:32;6.30;;;4.38;;
68866;SDS011;56451;44.804;20.476;2023-06-26T13:49:59;4.88;;;4.20;;
68866;SDS011;56451;44.804;20.476;2023-06-26T13:52:25;5.93;;;4.27;;
68866;SDS011;56451;44.804;20.476;2023-06-26T13:54:51;9.82;;;4.68;;
68866;SDS011;56451;44.804;20.476;2023-06-26T13:57:18;7.28;;;4.80;;
68866;SDS011;56451;44.804;20.476;2023-06-26T13:59:48;4.50;;;3.92;;
68866;SDS011;56451;44.804;20.476;2023-06-26T14:02:13;6.10;;;4.60;;
68866;SDS011;56451;44.804;20.476;2023-06-26T14:04:39;8.30;;;4.30;;
68866;SDS011;56451;44.804;20.476;2023-06-26T14:07:06;7.90;;;4.63;;
68866;SDS011;56451;44.804;20.476;2023-06-26T14:09:32;5.63;;;4.43;;
68866;SDS011;56451;44.804;20.476;2023-06-26T14:11:58;6.17;;;4.27;;
68866;SDS011;56451;44.804;20.476;2023-06-26T14:14:25;6.32;;;4.40;;
68866;SDS011;56451;44.804;20.476;2023-06-26T14:16:51;5.25;;;4.53;;
68866;SDS011;56451;44.804;20.476;2023-06-26T14:19:17;5.20;;;4.20;;
68866;SDS011;56451;44.804;20.476;2023-06-26T14:21:43;6.80;;;4.47;;
68866;SDS011;56451;44.804;20.476;2023-06-26T14:24:09;6.75;;;4.70;;
68866;SDS011;56451;44.804;20.476;2023-06-26T14:26:35;7.18;;;4.45;;
68866;SDS011;56451;44.804;20.476;2023-06-26T14:29:02;5.55;;;4.45;;
68866;SDS011;56451;44.804;20.476;2023-06-26T14:31:28;5.32;;;4.72;;
68866;SDS011;56451;44.804;20.476;2023-06-26T14:33:54;7.80;;;4.70;;
68866;SDS011;56451;44.804;20.476;2023-06-26T14:36:20;9.80;;;4.82;;
68866;SDS011;56451;44.804;20.476;2023-06-26T14:38:46;8.55;;;4.60;;
68866;SDS011;56451;44.804;20.476;2023-06-26T14:41:12;7.13;;;4.90;;
68866;SDS011;56451;44.804;20.476;2023-06-26T14:43:38;9.15;;;4.80;;
68866;SDS011;56451;44.804;20.476;2023-06-26T14:46:04;6.70;;;4.95;;
68866;SDS011;56451;44.804;20.476;2023-06-26T14:48:30;5.88;;;4.63;;
68866;SDS011;56451;44.804;20.476;2023-06-26T14:50:56;8.77;;;4.73;;